Bodega Marine Reserve, California Weather observations

Data are for 10 minute period ending at time listed.
 Day   Time   Solar   Ave.   Ave.  Ave.  Vector  Max.   Baro.   Total    
  of    of     Rad.   Air    Rel.  Wind   Wind   Wind  Press.  Precip.   
Year   Day            Temp.  Hum.  Speed  Dir.   Gust                    
2016   (PST)  Kw/m2    F      %     mph   deg.    mph    mb.     in.     
-------------------------------------------------------------------------
 151   20:10   0.02   52.3    91    7.0   293     9.8   1011.2    0.00 
 151   20:20   0.02   52.5    91    7.6   296    10.5   1011.2    0.00 
 151   20:30   0.00   52.2    90    8.2   300    10.3   1010.8    0.00 
 151   20:40   0.00   51.9    90    7.3   300    10.6   1010.8    0.00 
 151   20:50   0.00   51.9    90    7.0   302     9.9   1010.8    0.00 
 151   21:00   0.00   51.9    90    6.7   299    10.0   1010.8    0.00 
 151   21:10   100.00  99999.0   99999  99999.0   99999   99999.0   99999.0   99999.00 
 151   21:20   100.00  99999.0   99999  99999.0   99999   99999.0   99999.0   99999.00 
 151   21:30   100.00  99999.0   99999  99999.0   99999   99999.0   99999.0   99999.00 
 151   21:40   100.00  99999.0   99999  99999.0   99999   99999.0   99999.0   99999.00 
 151   21:50   100.00  99999.0   99999  99999.0   99999   99999.0   99999.0   99999.00 
 151   22:00   100.00  99999.0   99999  99999.0   99999   99999.0   99999.0   99999.00 
 151   22:10   100.00  99999.0   99999  99999.0   99999   99999.0   99999.0   99999.00 
 151   22:20   100.00  99999.0   99999  99999.0   99999   99999.0   99999.0   99999.00 
 151   22:30   100.00  99999.0   99999  99999.0   99999   99999.0   99999.0   99999.00 
 151   22:40   100.00  99999.0   99999  99999.0   99999   99999.0   99999.0   99999.00 
 151   22:50   100.00  99999.0   99999  99999.0   99999   99999.0   99999.0   99999.00 
 151   23:00   100.00  99999.0   99999  99999.0   99999   99999.0   99999.0   99999.00 
 151   23:10   0.00   49.2    92    1.2   323     2.6   1010.5    0.00 
 151   23:20   0.00   49.4    92    0.0     0     0.0   1010.2    0.00 
 151   23:30   0.00   49.9    92    0.4   191     1.5   1010.2    0.00 
 151   23:40   0.00   49.9    92    1.0   158     2.0   1010.2    0.00 
 151   23:50   0.00   49.9    92    1.2   173     2.0   1010.2    0.00 
 152    0:00   0.00   49.8    92    1.7   152     3.0   1009.8    0.00 
 152    0:10   0.00   50.1    92    1.3   144     3.4   1009.8    0.00 
 152    0:20   0.00   50.6    92    3.6   144     7.0   1009.8    0.00 
 152    0:30   0.00   51.3    92    5.2   133     8.3   1009.8    0.00 
 152    0:40   0.00   51.5    92    6.3   138     9.8   1009.8    0.00 
 152    0:50   0.00   51.6    92    4.7   128     8.4   1009.5    0.00 
 152    1:00   0.00   51.7    92    5.5   126     8.4   1009.5    0.00 
 152    1:10   100.00  99999.0   99999  99999.0   99999   99999.0   99999.0   99999.00 
 152    1:20   100.00  99999.0   99999  99999.0   99999   99999.0   99999.0   99999.00 
 152    1:30   0.00   51.6    92    6.0   124     9.5   1009.5    0.00 
 152    1:40   0.00   51.5    92    5.2   120    10.5   1009.1    0.00 
 152    1:50   0.00   51.4    93    7.2   128    11.2   1009.1    0.00 
 152    2:00   0.00   51.4    93    9.1   133    11.9   1009.1    0.00 
 152    2:10   0.00   51.5    93    6.4   123    10.6   1009.1    0.00 
 152    2:20   0.00   51.4    93    9.4   132    13.7   1009.1    0.00 
 152    2:30   0.00   51.5    93    8.1   127    12.6   1009.1    0.00 
 152    2:40   0.00   51.5    93    9.7   131    13.4   1009.1    0.00 
 152    2:50   0.00   51.5    93    8.5   127    13.4   1009.1    0.00 
 152    3:00   0.00   51.5    93    9.6   130    14.2   1008.8    0.00 
 152    3:10   0.00   51.5    93    9.2   127    14.6   1008.8    0.00 
 152    3:20   0.00   51.5    93    7.7   123    13.2   1008.8    0.00 
 152    3:30   0.00   51.7    93    6.7   122    13.9   1008.8    0.00 
 152    3:40   0.00   51.6    93    6.1   122    12.1   1008.8    0.00 
 152    3:50   0.00   51.8    94    8.7   132    13.4   1008.8    0.00 
 152    4:00   0.00   51.8    93    8.2   127    13.3   1008.8    0.00 
 152    4:10   0.00   51.7    94   10.4   138    13.5   1008.5    0.00 
 152    4:20   0.00   51.9    94    6.7   125    11.7   1008.5    0.00 
 152    4:30   0.00   51.7    94    6.5   119    11.4   1008.5    0.00 
 152    4:40   0.00   51.7    94    8.1   127    12.6   1008.5    0.00 
 152    4:50   0.00   51.6    94    8.2   130    12.2   1008.5    0.00 
 152    5:00   0.00   51.6    94    7.7   130    11.5   1008.5    0.00 
 152    5:10   0.00   51.6    94    5.1   115    10.3   1008.5    0.00 
 152    5:20   0.00   51.6    94    8.7   137    11.1   1008.5    0.00 
 152    5:30   0.00   51.7    94    7.8   132    11.4   1008.5    0.00 
 152    5:40   0.00   51.7    94    6.7   127    11.0   1008.1    0.00 
 152    5:50   0.00   51.5    94    7.7   134    11.6   1008.5    0.00 
 152    6:00   0.00   51.3    94    7.9   137    10.6   1008.5    0.00 
 152    6:10   0.00   51.2    94    4.6   133     8.4   1008.5    0.00 
 152    6:20   0.01   51.3    94    4.7   153     6.8   1008.8    0.00 
 152    6:30   0.01   51.1    94    5.6   140     7.9   1008.8    0.00 
 152    6:40   0.02   50.9    94    4.9   151     7.2   1008.8    0.00 
 152    6:50   0.03   51.0    94    3.5   140     6.1   1008.8    0.00 
 152    7:00   0.03   51.0    94    4.5   134     7.6   1008.8    0.00 
 152    7:10   0.05   51.1    95    4.8   114     7.6   1008.8    0.00 
 152    7:20   0.06   51.4    95    4.8   112     7.2   1008.8    0.00 
 152    7:30   0.07   51.2    95    5.7   133     8.4   1008.5    0.00 
 152    7:40   0.08   51.0    95    4.0   125     6.8   1008.8    0.00 
 152    7:50   0.12   51.0    95    3.8   127     5.9   1008.8    0.00 
 152    8:00   0.13   51.2    95    3.7   121     6.2   1008.8    0.00 
 152    8:10   0.12   51.4    95    3.0   150     4.6   1009.1    0.00 
 152    8:20   0.20   51.4    95    1.4   152     3.4   1009.1    0.00 
 152    8:30   0.20   52.1    95    2.7   153     4.7   1009.1    0.00 
 152    8:40   0.21   52.2    95    2.9   148     4.7   1009.5    0.00 
 152    8:50   0.22   52.1    95    3.7   132     5.6   1009.5    0.00 
 152    9:00   0.23   52.3    95    3.2   132     5.9   1009.5    0.00 
 152    9:10   0.26   52.8    94    2.7   113     5.9   1009.5    0.00 
 152    9:20   0.29   53.0    94    2.9   125     5.7   1009.8    0.00 
 152    9:30   0.30   53.4    94    2.8   131     5.3   1009.8    0.00 
 152    9:40   0.34   53.8    94    3.5   126     5.2   1009.8    0.00 
 152    9:50   0.36   53.8    93    3.8   129     6.3   1009.8    0.00 
 152   10:00   0.52   54.6    94    3.3   122     6.0   1009.8    0.00 
 152   10:10   0.46   55.7    92    3.0   156     5.5   1009.8    0.00 
 152   10:20   0.39   56.3    92    3.7   205     8.0   1010.2    0.00 
 152   10:30   0.41   56.3    90    5.2   245     8.8   1010.2    0.00 
 152   10:40   0.46   56.9    89    4.7   251     7.5   1010.2    0.00 
 152   10:50   0.46   56.8    88    4.1   252     7.7   1010.2    0.00 
 152   11:00   0.40   57.0    87    5.2   254     8.4   1010.2    0.00 
 152   11:10   0.42   56.4    87    4.1   226     7.5   1010.2    0.00 
 152   11:20   0.42   56.8    86    5.1   225     7.5   1010.2    0.00 
 152   11:30   0.47   56.6    86    4.7   229     7.7   1010.5    0.00 
 152   11:40   0.51   56.9    85    4.6   229     7.2   1010.5    0.00 
 152   11:50   0.57   56.8    85    5.2   228     8.8   1010.5    0.00 
 152   12:00   0.59   57.6    84    4.5   228     8.4   1010.5    0.00 
 152   12:10   0.63   58.0    82    4.0   257     6.9   1010.5    0.00 
 152   12:20   0.68   57.2    82    3.7   256     9.3   1010.5    0.00 
 152   12:30   0.71   57.3    82    4.4   266     9.0   1010.5    0.00 
 152   12:40   0.68   57.1    83    3.7   231     8.4   1010.2    0.00 
 152   12:50   0.82   57.8    83    5.1   248     9.2   1010.2    0.00 
 152   13:00   0.97   58.1    82    5.1   249     9.9   1010.2    0.00 
 152   13:10   0.87   57.8    81    5.5   253     7.7   1010.2    0.00 
 152   13:20   0.83   58.2    82    5.3   246     8.5   1010.2    0.00 
 152   13:30   0.78   58.8    80    6.5   256    10.2   1010.2    0.00 
 152   13:40   0.78   58.4    80    6.4   256     9.6   1010.2    0.00 
 152   13:50   0.71   58.1    81    6.6   269    10.1   1010.2    0.00 
 152   14:00   0.69   58.7    80    6.2   268     9.5   1010.2    0.00 
 152   14:10   0.72   57.8    82    6.5   284     9.3   1010.2    0.00 
 152   14:20   0.67   57.6    82    7.1   277    10.4   1010.2    0.00 
 152   14:30   0.59   57.2    82    6.5   252     9.6   1010.2    0.00 
 152   14:40   0.71   57.6    83    6.3   263     9.6   1009.8    0.00 
 152   14:50   0.63   58.1    81    7.1   280    10.1   1009.8    0.00 
 152   15:00   0.62   57.2    83    5.9   286     9.3   1009.8    0.00 
 152   15:10   0.61   57.5    83    7.3   282     9.7   1009.8    0.00 
 152   15:20   0.59   57.3    82    7.1   289    10.9   1009.8    0.00 
 152   15:30   0.51   57.2    83    6.5   281     9.8   1009.5    0.00 
 152   15:40   0.44   56.8    83    6.7   277     9.4   1009.5    0.00 
 152   15:50   0.47   56.6    84    7.0   270     9.6   1009.1    0.00 
 152   16:00   0.48   57.0    84    6.7   275     9.3   1009.1    0.00 
 152   16:10   0.48   56.8    84    7.9   274    11.0   1009.1    0.00 
 152   16:20   0.50   56.4    84    7.3   275     9.6   1008.8    0.00 
 152   16:30   0.45   56.1    85    7.2   274     9.3   1008.8    0.00 
 152   16:40   0.45   56.0    85    7.6   278    10.5   1008.8    0.00 
 152   16:50   0.39   55.7    85    8.1   278    10.5   1008.8    0.00 
 152   17:00   0.42   55.5    85    8.4   280    11.2   1008.8    0.00 
 152   17:10   0.27   54.9    86    8.6   281    12.2   1008.8    0.00 
 152   17:20   0.23   54.8    88    8.3   286    11.1   1008.5    0.00 
 152   17:30   0.20   54.5    88    7.6   293    10.3   1008.5    0.00 
 152   17:40   0.17   54.8    88    6.5   289     9.8   1008.5    0.00 
 152   17:50   0.16   54.6    89    6.8   289     9.8   1008.1    0.00 
 152   18:00   0.12   53.9    90    6.7   296     9.3   1008.1    0.00 
 152   18:10   0.11   53.8    90    6.6   300     9.5   1008.1    0.00 
 152   18:20   0.12   53.6    91    5.8   303     8.6   1007.8    0.00 
 152   18:30   0.10   53.3    91    7.1   289     9.3   1007.8    0.00 
 152   18:40   0.09   52.9    92    7.4   293     9.6   1007.8    0.00 
 152   18:50   0.11   52.4    92    7.2   291     9.6   1007.8    0.00 
 152   19:00   0.12   52.2    92    6.9   291     9.0   1007.8    0.00 
 152   19:10   0.08   52.2    93    6.4   310     8.2   1007.5    0.00 
 152   19:20   0.07   52.2    93    6.4   303     8.7   1007.5    0.00 
 152   19:30   0.07   52.2    93    5.5   298     7.9   1007.5    0.00 
 152   19:40   0.06   51.9    93    5.7   303     8.2   1007.5    0.00 
 152   19:50   0.04   51.7    93    5.5   289     7.7   1007.5    0.00 
 152   20:00   0.02   51.3    93    5.0   291     7.6   1007.5    0.00 

Return to Bodega Marine Reserve graphs page.


Western Regional Climate Center,wrcc@dri.edu